sensor_id;sensor_type;location;lat;lon;timestamp;P1;durP1;ratioP1;P2;durP2;ratioP2
29294;SDS011;16305;48.566;8.846;2023-01-24T00:00:34;28.27;;;16.50;;
29294;SDS011;16305;48.566;8.846;2023-01-24T00:03:00;28.77;;;16.83;;
29294;SDS011;16305;48.566;8.846;2023-01-24T00:05:26;31.90;;;16.47;;
29294;SDS011;16305;48.566;8.846;2023-01-24T00:07:51;29.07;;;15.37;;
29294;SDS011;16305;48.566;8.846;2023-01-24T00:10:17;30.33;;;15.90;;
29294;SDS011;16305;48.566;8.846;2023-01-24T00:12:43;28.97;;;16.20;;
29294;SDS011;16305;48.566;8.846;2023-01-24T00:15:08;30.80;;;16.80;;
29294;SDS011;16305;48.566;8.846;2023-01-24T00:17:34;32.70;;;16.87;;
29294;SDS011;16305;48.566;8.846;2023-01-24T00:20:00;29.03;;;15.70;;
29294;SDS011;16305;48.566;8.846;2023-01-24T00:22:26;26.53;;;15.63;;
29294;SDS011;16305;48.566;8.846;2023-01-24T00:24:51;29.80;;;17.40;;
29294;SDS011;16305;48.566;8.846;2023-01-24T00:27:17;28.87;;;15.13;;
29294;SDS011;16305;48.566;8.846;2023-01-24T00:29:42;29.77;;;16.90;;
29294;SDS011;16305;48.566;8.846;2023-01-24T00:32:08;27.83;;;16.30;;
29294;SDS011;16305;48.566;8.846;2023-01-24T00:34:34;26.37;;;15.60;;
29294;SDS011;16305;48.566;8.846;2023-01-24T00:37:00;28.33;;;15.83;;
29294;SDS011;16305;48.566;8.846;2023-01-24T00:39:26;29.87;;;16.37;;
29294;SDS011;16305;48.566;8.846;2023-01-24T00:41:51;26.20;;;14.67;;
29294;SDS011;16305;48.566;8.846;2023-01-24T00:44:17;28.97;;;16.70;;
29294;SDS011;16305;48.566;8.846;2023-01-24T00:46:42;27.03;;;14.23;;
29294;SDS011;16305;48.566;8.846;2023-01-24T00:49:08;29.40;;;16.83;;
29294;SDS011;16305;48.566;8.846;2023-01-24T00:51:33;29.20;;;15.57;;
29294;SDS011;16305;48.566;8.846;2023-01-24T00:53:59;25.53;;;14.87;;
29294;SDS011;16305;48.566;8.846;2023-01-24T00:56:24;25.60;;;15.23;;
29294;SDS011;16305;48.566;8.846;2023-01-24T00:58:50;28.57;;;16.20;;
29294;SDS011;16305;48.566;8.846;2023-01-24T01:01:16;28.07;;;16.07;;
29294;SDS011;16305;48.566;8.846;2023-01-24T01:03:41;27.23;;;16.00;;
29294;SDS011;16305;48.566;8.846;2023-01-24T01:06:09;29.00;;;16.17;;
29294;SDS011;16305;48.566;8.846;2023-01-24T01:08:37;25.63;;;15.50;;
29294;SDS011;16305;48.566;8.846;2023-01-24T01:11:03;27.30;;;15.60;;
29294;SDS011;16305;48.566;8.846;2023-01-24T01:13:30;26.20;;;15.00;;
29294;SDS011;16305;48.566;8.846;2023-01-24T01:16:03;27.53;;;15.23;;
29294;SDS011;16305;48.566;8.846;2023-01-24T01:18:30;28.67;;;16.07;;
29294;SDS011;16305;48.566;8.846;2023-01-24T01:20:56;28.83;;;16.23;;
29294;SDS011;16305;48.566;8.846;2023-01-24T01:23:22;27.30;;;14.77;;
29294;SDS011;16305;48.566;8.846;2023-01-24T01:25:47;27.57;;;16.60;;
29294;SDS011;16305;48.566;8.846;2023-01-24T01:28:13;27.43;;;15.80;;
29294;SDS011;16305;48.566;8.846;2023-01-24T01:30:38;27.17;;;16.23;;
29294;SDS011;16305;48.566;8.846;2023-01-24T01:33:04;28.63;;;16.03;;
29294;SDS011;16305;48.566;8.846;2023-01-24T01:35:30;29.07;;;15.57;;
29294;SDS011;16305;48.566;8.846;2023-01-24T01:37:55;28.37;;;16.20;;
29294;SDS011;16305;48.566;8.846;2023-01-24T01:40:21;28.83;;;16.73;;
29294;SDS011;16305;48.566;8.846;2023-01-24T01:48:12;29.63;;;15.60;;
29294;SDS011;16305;48.566;8.846;2023-01-24T01:50:46;27.87;;;16.70;;
29294;SDS011;16305;48.566;8.846;2023-01-24T01:53:16;28.60;;;16.90;;
29294;SDS011;16305;48.566;8.846;2023-01-24T01:55:43;28.27;;;16.03;;
29294;SDS011;16305;48.566;8.846;2023-01-24T01:58:13;28.73;;;15.33;;
29294;SDS011;16305;48.566;8.846;2023-01-24T02:00:40;25.23;;;15.00;;
29294;SDS011;16305;48.566;8.846;2023-01-24T02:03:14;30.07;;;15.63;;
29294;SDS011;16305;48.566;8.846;2023-01-24T02:06:02;28.87;;;15.67;;
29294;SDS011;16305;48.566;8.846;2023-01-24T02:08:28;31.47;;;16.30;;
29294;SDS011;16305;48.566;8.846;2023-01-24T02:10:55;30.07;;;16.70;;
29294;SDS011;16305;48.566;8.846;2023-01-24T02:13:42;32.93;;;17.33;;
29294;SDS011;16305;48.566;8.846;2023-01-24T02:16:09;29.20;;;15.47;;
29294;SDS011;16305;48.566;8.846;2023-01-24T02:18:37;28.93;;;16.00;;
29294;SDS011;16305;48.566;8.846;2023-01-24T02:21:08;31.67;;;16.33;;
29294;SDS011;16305;48.566;8.846;2023-01-24T02:26:25;31.30;;;16.37;;
29294;SDS011;16305;48.566;8.846;2023-01-24T02:29:03;30.67;;;17.07;;
29294;SDS011;16305;48.566;8.846;2023-01-24T02:34:37;27.43;;;15.60;;
29294;SDS011;16305;48.566;8.846;2023-01-24T02:37:10;31.00;;;15.40;;
29294;SDS011;16305;48.566;8.846;2023-01-24T02:39:51;31.63;;;16.50;;
29294;SDS011;16305;48.566;8.846;2023-01-24T02:42:21;29.17;;;16.97;;
29294;SDS011;16305;48.566;8.846;2023-01-24T02:45:01;32.90;;;16.90;;
29294;SDS011;16305;48.566;8.846;2023-01-24T02:47:36;30.37;;;16.77;;
29294;SDS011;16305;48.566;8.846;2023-01-24T02:50:05;32.77;;;16.20;;
29294;SDS011;16305;48.566;8.846;2023-01-24T02:52:33;29.93;;;16.80;;
29294;SDS011;16305;48.566;8.846;2023-01-24T02:55:17;32.57;;;17.97;;
29294;SDS011;16305;48.566;8.846;2023-01-24T02:57:43;34.97;;;18.50;;
29294;SDS011;16305;48.566;8.846;2023-01-24T03:00:27;34.03;;;17.20;;
29294;SDS011;16305;48.566;8.846;2023-01-24T03:02:52;32.77;;;17.03;;
29294;SDS011;16305;48.566;8.846;2023-01-24T03:05:18;34.57;;;16.93;;
29294;SDS011;16305;48.566;8.846;2023-01-24T03:07:43;31.43;;;16.87;;
29294;SDS011;16305;48.566;8.846;2023-01-24T03:10:16;32.60;;;17.20;;
29294;SDS011;16305;48.566;8.846;2023-01-24T03:12:43;32.73;;;17.13;;
29294;SDS011;16305;48.566;8.846;2023-01-24T03:15:28;36.40;;;18.03;;
29294;SDS011;16305;48.566;8.846;2023-01-24T03:18:12;39.53;;;18.90;;
29294;SDS011;16305;48.566;8.846;2023-01-24T03:20:57;36.10;;;19.07;;
29294;SDS011;16305;48.566;8.846;2023-01-24T03:23:41;33.57;;;17.87;;
29294;SDS011;16305;48.566;8.846;2023-01-24T03:26:25;34.07;;;18.13;;
29294;SDS011;16305;48.566;8.846;2023-01-24T03:29:09;35.50;;;18.37;;
29294;SDS011;16305;48.566;8.846;2023-01-24T03:31:53;40.47;;;20.43;;
29294;SDS011;16305;48.566;8.846;2023-01-24T03:34:38;37.50;;;18.90;;
29294;SDS011;16305;48.566;8.846;2023-01-24T03:37:17;39.67;;;19.57;;
29294;SDS011;16305;48.566;8.846;2023-01-24T03:40:04;38.80;;;19.43;;
29294;SDS011;16305;48.566;8.846;2023-01-24T03:42:33;35.37;;;18.40;;
29294;SDS011;16305;48.566;8.846;2023-01-24T03:44:59;34.20;;;17.17;;
29294;SDS011;16305;48.566;8.846;2023-01-24T03:47:25;37.10;;;19.20;;
29294;SDS011;16305;48.566;8.846;2023-01-24T03:49:51;30.13;;;16.13;;
29294;SDS011;16305;48.566;8.846;2023-01-24T03:52:35;33.80;;;17.10;;
29294;SDS011;16305;48.566;8.846;2023-01-24T03:55:00;36.47;;;18.70;;
29294;SDS011;16305;48.566;8.846;2023-01-24T03:57:27;35.10;;;17.93;;
29294;SDS011;16305;48.566;8.846;2023-01-24T03:59:53;37.97;;;18.87;;
29294;SDS011;16305;48.566;8.846;2023-01-24T04:02:19;35.60;;;17.10;;
29294;SDS011;16305;48.566;8.846;2023-01-24T04:04:45;36.27;;;18.03;;
29294;SDS011;16305;48.566;8.846;2023-01-24T04:07:30;32.67;;;17.53;;
29294;SDS011;16305;48.566;8.846;2023-01-24T04:09:55;37.60;;;18.33;;
29294;SDS011;16305;48.566;8.846;2023-01-24T04:12:23;38.37;;;19.73;;
29294;SDS011;16305;48.566;8.846;2023-01-24T04:14:49;36.07;;;16.83;;
29294;SDS011;16305;48.566;8.846;2023-01-24T04:17:15;35.37;;;17.20;;
29294;SDS011;16305;48.566;8.846;2023-01-24T04:19:40;39.17;;;19.00;;
29294;SDS011;16305;48.566;8.846;2023-01-24T04:22:07;33.83;;;17.07;;
29294;SDS011;16305;48.566;8.846;2023-01-24T04:24:32;31.90;;;18.37;;
29294;SDS011;16305;48.566;8.846;2023-01-24T04:26:58;37.27;;;18.67;;
29294;SDS011;16305;48.566;8.846;2023-01-24T04:29:23;32.63;;;17.33;;
29294;SDS011;16305;48.566;8.846;2023-01-24T04:31:49;40.67;;;19.63;;
29294;SDS011;16305;48.566;8.846;2023-01-24T04:34:14;35.27;;;17.50;;
29294;SDS011;16305;48.566;8.846;2023-01-24T04:36:40;41.70;;;20.10;;
29294;SDS011;16305;48.566;8.846;2023-01-24T04:39:05;39.13;;;19.23;;
29294;SDS011;16305;48.566;8.846;2023-01-24T04:41:31;35.73;;;17.00;;
29294;SDS011;16305;48.566;8.846;2023-01-24T04:43:56;38.07;;;19.43;;
29294;SDS011;16305;48.566;8.846;2023-01-24T04:46:22;33.87;;;16.83;;
29294;SDS011;16305;48.566;8.846;2023-01-24T04:48:47;36.13;;;18.17;;
29294;SDS011;16305;48.566;8.846;2023-01-24T04:51:13;35.50;;;17.20;;
29294;SDS011;16305;48.566;8.846;2023-01-24T04:53:38;36.43;;;18.03;;
29294;SDS011;16305;48.566;8.846;2023-01-24T04:56:05;37.47;;;19.37;;
29294;SDS011;16305;48.566;8.846;2023-01-24T04:58:32;33.97;;;18.47;;
29294;SDS011;16305;48.566;8.846;2023-01-24T05:00:58;37.37;;;18.93;;
29294;SDS011;16305;48.566;8.846;2023-01-24T05:03:24;32.50;;;16.83;;
29294;SDS011;16305;48.566;8.846;2023-01-24T05:05:50;37.87;;;18.10;;
29294;SDS011;16305;48.566;8.846;2023-01-24T05:08:16;36.97;;;17.57;;
29294;SDS011;16305;48.566;8.846;2023-01-24T05:10:41;36.87;;;19.00;;
29294;SDS011;16305;48.566;8.846;2023-01-24T05:13:07;35.83;;;17.47;;
29294;SDS011;16305;48.566;8.846;2023-01-24T05:15:32;41.17;;;19.57;;
29294;SDS011;16305;48.566;8.846;2023-01-24T05:17:58;32.83;;;18.07;;
29294;SDS011;16305;48.566;8.846;2023-01-24T05:20:24;34.93;;;17.03;;
29294;SDS011;16305;48.566;8.846;2023-01-24T05:22:49;37.93;;;18.27;;
29294;SDS011;16305;48.566;8.846;2023-01-24T05:25:15;38.60;;;18.23;;
29294;SDS011;16305;48.566;8.846;2023-01-24T05:27:41;39.80;;;19.43;;
29294;SDS011;16305;48.566;8.846;2023-01-24T05:30:07;35.03;;;18.07;;
29294;SDS011;16305;48.566;8.846;2023-01-24T05:32:33;36.87;;;19.47;;
29294;SDS011;16305;48.566;8.846;2023-01-24T05:34:59;35.63;;;18.50;;
29294;SDS011;16305;48.566;8.846;2023-01-24T05:37:24;39.47;;;19.77;;
29294;SDS011;16305;48.566;8.846;2023-01-24T05:39:50;36.47;;;18.83;;
29294;SDS011;16305;48.566;8.846;2023-01-24T05:42:15;34.27;;;17.20;;
29294;SDS011;16305;48.566;8.846;2023-01-24T05:44:41;37.53;;;18.23;;
29294;SDS011;16305;48.566;8.846;2023-01-24T05:47:06;38.73;;;19.07;;
29294;SDS011;16305;48.566;8.846;2023-01-24T05:49:32;35.53;;;17.20;;
29294;SDS011;16305;48.566;8.846;2023-01-24T05:51:57;40.53;;;18.97;;
29294;SDS011;16305;48.566;8.846;2023-01-24T05:54:23;37.27;;;19.27;;
29294;SDS011;16305;48.566;8.846;2023-01-24T05:56:48;44.57;;;20.77;;
29294;SDS011;16305;48.566;8.846;2023-01-24T05:59:14;42.70;;;19.90;;
29294;SDS011;16305;48.566;8.846;2023-01-24T06:01:39;41.70;;;20.43;;
29294;SDS011;16305;48.566;8.846;2023-01-24T06:04:05;33.27;;;17.33;;
29294;SDS011;16305;48.566;8.846;2023-01-24T06:06:30;40.77;;;20.20;;
29294;SDS011;16305;48.566;8.846;2023-01-24T06:08:56;39.93;;;20.57;;
29294;SDS011;16305;48.566;8.846;2023-01-24T06:11:22;39.87;;;20.67;;
29294;SDS011;16305;48.566;8.846;2023-01-24T06:13:49;43.83;;;19.57;;
29294;SDS011;16305;48.566;8.846;2023-01-24T06:16:16;37.37;;;18.93;;
29294;SDS011;16305;48.566;8.846;2023-01-24T06:18:47;41.40;;;19.53;;
29294;SDS011;16305;48.566;8.846;2023-01-24T06:23:51;39.57;;;20.20;;
29294;SDS011;16305;48.566;8.846;2023-01-24T06:26:16;42.50;;;20.53;;
29294;SDS011;16305;48.566;8.846;2023-01-24T06:28:42;40.03;;;19.73;;
29294;SDS011;16305;48.566;8.846;2023-01-24T06:36:53;38.53;;;19.00;;
29294;SDS011;16305;48.566;8.846;2023-01-24T06:39:36;39.03;;;19.40;;
29294;SDS011;16305;48.566;8.846;2023-01-24T06:42:04;44.63;;;20.60;;
29294;SDS011;16305;48.566;8.846;2023-01-24T06:44:30;43.17;;;20.53;;
29294;SDS011;16305;48.566;8.846;2023-01-24T06:46:55;44.33;;;20.83;;
29294;SDS011;16305;48.566;8.846;2023-01-24T06:49:21;41.60;;;19.60;;
29294;SDS011;16305;48.566;8.846;2023-01-24T06:51:50;43.13;;;21.40;;
29294;SDS011;16305;48.566;8.846;2023-01-24T06:54:16;46.50;;;21.10;;
29294;SDS011;16305;48.566;8.846;2023-01-24T06:56:42;44.23;;;21.63;;
29294;SDS011;16305;48.566;8.846;2023-01-24T06:59:08;45.13;;;21.17;;
29294;SDS011;16305;48.566;8.846;2023-01-24T07:01:33;40.57;;;19.00;;
29294;SDS011;16305;48.566;8.846;2023-01-24T07:03:59;44.97;;;22.40;;
29294;SDS011;16305;48.566;8.846;2023-01-24T07:06:25;47.10;;;21.33;;
29294;SDS011;16305;48.566;8.846;2023-01-24T07:08:51;48.73;;;21.27;;
29294;SDS011;16305;48.566;8.846;2023-01-24T07:11:17;45.23;;;21.27;;
29294;SDS011;16305;48.566;8.846;2023-01-24T07:13:43;40.27;;;19.20;;
29294;SDS011;16305;48.566;8.846;2023-01-24T07:16:08;39.80;;;19.07;;
29294;SDS011;16305;48.566;8.846;2023-01-24T07:18:34;50.73;;;21.77;;
29294;SDS011;16305;48.566;8.846;2023-01-24T07:21:03;43.27;;;20.47;;
29294;SDS011;16305;48.566;8.846;2023-01-24T07:23:30;44.73;;;21.70;;
29294;SDS011;16305;48.566;8.846;2023-01-24T07:25:57;48.57;;;21.90;;
29294;SDS011;16305;48.566;8.846;2023-01-24T07:28:24;46.93;;;22.07;;
29294;SDS011;16305;48.566;8.846;2023-01-24T07:30:50;45.27;;;22.27;;
29294;SDS011;16305;48.566;8.846;2023-01-24T07:33:17;45.50;;;22.37;;
29294;SDS011;16305;48.566;8.846;2023-01-24T07:35:42;50.17;;;22.70;;
29294;SDS011;16305;48.566;8.846;2023-01-24T07:38:08;53.30;;;23.60;;
29294;SDS011;16305;48.566;8.846;2023-01-24T07:40:35;51.53;;;22.57;;
29294;SDS011;16305;48.566;8.846;2023-01-24T07:43:01;50.53;;;23.53;;
29294;SDS011;16305;48.566;8.846;2023-01-24T07:45:27;45.80;;;21.43;;
29294;SDS011;16305;48.566;8.846;2023-01-24T07:47:54;49.73;;;22.73;;
29294;SDS011;16305;48.566;8.846;2023-01-24T07:50:21;52.73;;;23.30;;
29294;SDS011;16305;48.566;8.846;2023-01-24T07:52:49;47.63;;;22.33;;
29294;SDS011;16305;48.566;8.846;2023-01-24T07:55:16;51.17;;;23.33;;
29294;SDS011;16305;48.566;8.846;2023-01-24T07:57:42;53.30;;;23.83;;
29294;SDS011;16305;48.566;8.846;2023-01-24T08:00:07;49.37;;;22.73;;
29294;SDS011;16305;48.566;8.846;2023-01-24T08:02:33;57.47;;;23.27;;
29294;SDS011;16305;48.566;8.846;2023-01-24T08:04:59;49.90;;;22.30;;
29294;SDS011;16305;48.566;8.846;2023-01-24T08:07:24;53.73;;;24.27;;
29294;SDS011;16305;48.566;8.846;2023-01-24T08:09:50;47.60;;;22.23;;
29294;SDS011;16305;48.566;8.846;2023-01-24T08:12:15;51.50;;;23.13;;
29294;SDS011;16305;48.566;8.846;2023-01-24T08:14:41;41.70;;;19.03;;
29294;SDS011;16305;48.566;8.846;2023-01-24T08:17:07;50.23;;;22.87;;
29294;SDS011;16305;48.566;8.846;2023-01-24T08:19:32;46.00;;;21.63;;
29294;SDS011;16305;48.566;8.846;2023-01-24T08:21:58;39.50;;;20.50;;
29294;SDS011;16305;48.566;8.846;2023-01-24T08:24:24;55.80;;;23.63;;
29294;SDS011;16305;48.566;8.846;2023-01-24T08:26:49;51.10;;;22.63;;
29294;SDS011;16305;48.566;8.846;2023-01-24T08:29:16;50.70;;;22.87;;
29294;SDS011;16305;48.566;8.846;2023-01-24T08:31:41;53.93;;;24.20;;
29294;SDS011;16305;48.566;8.846;2023-01-24T08:34:08;54.20;;;24.70;;
29294;SDS011;16305;48.566;8.846;2023-01-24T08:36:34;49.93;;;23.77;;
29294;SDS011;16305;48.566;8.846;2023-01-24T08:39:00;53.33;;;25.47;;
29294;SDS011;16305;48.566;8.846;2023-01-24T08:41:27;58.30;;;24.57;;
29294;SDS011;16305;48.566;8.846;2023-01-24T08:43:53;51.50;;;23.37;;
29294;SDS011;16305;48.566;8.846;2023-01-24T08:46:19;56.47;;;24.57;;
29294;SDS011;16305;48.566;8.846;2023-01-24T08:48:44;53.50;;;24.07;;
29294;SDS011;16305;48.566;8.846;2023-01-24T08:51:10;54.23;;;24.57;;
29294;SDS011;16305;48.566;8.846;2023-01-24T08:53:35;56.33;;;25.73;;
29294;SDS011;16305;48.566;8.846;2023-01-24T08:56:01;58.60;;;24.80;;
29294;SDS011;16305;48.566;8.846;2023-01-24T08:58:27;63.47;;;26.83;;
29294;SDS011;16305;48.566;8.846;2023-01-24T09:00:53;58.67;;;25.27;;
29294;SDS011;16305;48.566;8.846;2023-01-24T09:03:18;64.70;;;25.63;;
29294;SDS011;16305;48.566;8.846;2023-01-24T09:05:44;37.20;;;16.47;;
29294;SDS011;16305;48.566;8.846;2023-01-24T09:08:10;45.00;;;20.67;;
29294;SDS011;16305;48.566;8.846;2023-01-24T09:10:37;54.93;;;25.17;;
29294;SDS011;16305;48.566;8.846;2023-01-24T09:13:03;55.17;;;24.97;;
29294;SDS011;16305;48.566;8.846;2023-01-24T09:15:29;53.07;;;24.07;;
29294;SDS011;16305;48.566;8.846;2023-01-24T09:17:59;46.87;;;19.17;;
29294;SDS011;16305;48.566;8.846;2023-01-24T09:20:26;58.30;;;25.53;;
29294;SDS011;16305;48.566;8.846;2023-01-24T09:22:51;53.57;;;24.83;;
29294;SDS011;16305;48.566;8.846;2023-01-24T09:25:17;57.33;;;24.33;;
29294;SDS011;16305;48.566;8.846;2023-01-24T09:27:42;54.13;;;22.70;;
29294;SDS011;16305;48.566;8.846;2023-01-24T09:30:08;48.67;;;22.60;;
29294;SDS011;16305;48.566;8.846;2023-01-24T09:32:35;47.33;;;23.50;;
29294;SDS011;16305;48.566;8.846;2023-01-24T09:35:00;50.40;;;23.03;;
29294;SDS011;16305;48.566;8.846;2023-01-24T09:37:26;46.93;;;21.37;;
29294;SDS011;16305;48.566;8.846;2023-01-24T09:39:52;45.63;;;22.50;;
29294;SDS011;16305;48.566;8.846;2023-01-24T09:42:33;48.70;;;22.90;;
29294;SDS011;16305;48.566;8.846;2023-01-24T09:45:26;46.20;;;21.40;;
29294;SDS011;16305;48.566;8.846;2023-01-24T09:48:00;45.87;;;21.83;;
29294;SDS011;16305;48.566;8.846;2023-01-24T09:50:37;50.93;;;22.57;;
29294;SDS011;16305;48.566;8.846;2023-01-24T09:53:10;51.60;;;23.73;;
29294;SDS011;16305;48.566;8.846;2023-01-24T09:55:53;51.37;;;22.90;;
29294;SDS011;16305;48.566;8.846;2023-01-24T09:58:22;49.97;;;23.03;;
29294;SDS011;16305;48.566;8.846;2023-01-24T10:01:11;44.77;;;22.03;;
29294;SDS011;16305;48.566;8.846;2023-01-24T10:03:38;47.23;;;22.40;;
29294;SDS011;16305;48.566;8.846;2023-01-24T10:06:09;52.03;;;23.33;;
29294;SDS011;16305;48.566;8.846;2023-01-24T10:11:41;45.80;;;22.07;;
29294;SDS011;16305;48.566;8.846;2023-01-24T10:14:20;46.90;;;22.40;;
29294;SDS011;16305;48.566;8.846;2023-01-24T10:20:12;44.40;;;19.90;;
29294;SDS011;16305;48.566;8.846;2023-01-24T10:25:53;44.50;;;21.43;;
29294;SDS011;16305;48.566;8.846;2023-01-24T10:28:34;50.20;;;22.87;;
29294;SDS011;16305;48.566;8.846;2023-01-24T10:31:05;31.87;;;14.67;;
29294;SDS011;16305;48.566;8.846;2023-01-24T10:33:37;41.30;;;20.37;;
29294;SDS011;16305;48.566;8.846;2023-01-24T10:39:11;43.87;;;20.93;;
29294;SDS011;16305;48.566;8.846;2023-01-24T10:41:37;45.70;;;20.97;;
29294;SDS011;16305;48.566;8.846;2023-01-24T10:49:57;50.20;;;24.73;;
29294;SDS011;16305;48.566;8.846;2023-01-24T10:52:24;50.07;;;22.93;;
29294;SDS011;16305;48.566;8.846;2023-01-24T10:54:56;51.90;;;22.83;;
29294;SDS011;16305;48.566;8.846;2023-01-24T10:57:37;48.70;;;21.87;;
29294;SDS011;16305;48.566;8.846;2023-01-24T11:02:46;51.77;;;21.90;;
29294;SDS011;16305;48.566;8.846;2023-01-24T11:05:14;52.03;;;22.47;;
29294;SDS011;16305;48.566;8.846;2023-01-24T11:07:44;40.07;;;19.23;;
29294;SDS011;16305;48.566;8.846;2023-01-24T11:12:48;40.90;;;19.60;;
29294;SDS011;16305;48.566;8.846;2023-01-24T11:15:17;55.03;;;25.13;;
29294;SDS011;16305;48.566;8.846;2023-01-24T11:17:50;48.00;;;22.80;;
29294;SDS011;16305;48.566;8.846;2023-01-24T11:20:22;54.67;;;25.40;;
29294;SDS011;16305;48.566;8.846;2023-01-24T11:23:00;58.10;;;25.37;;
29294;SDS011;16305;48.566;8.846;2023-01-24T11:25:27;52.60;;;24.97;;
29294;SDS011;16305;48.566;8.846;2023-01-24T11:27:52;45.60;;;21.47;;
29294;SDS011;16305;48.566;8.846;2023-01-24T11:30:19;50.30;;;24.30;;
29294;SDS011;16305;48.566;8.846;2023-01-24T11:35:29;51.47;;;24.60;;
29294;SDS011;16305;48.566;8.846;2023-01-24T11:38:13;46.63;;;21.33;;
29294;SDS011;16305;48.566;8.846;2023-01-24T11:41:03;54.00;;;23.63;;
29294;SDS011;16305;48.566;8.846;2023-01-24T11:46:46;45.50;;;23.20;;
29294;SDS011;16305;48.566;8.846;2023-01-24T11:49:31;48.23;;;22.70;;
29294;SDS011;16305;48.566;8.846;2023-01-24T11:57:53;47.90;;;22.93;;
29294;SDS011;16305;48.566;8.846;2023-01-24T12:06:02;46.13;;;22.70;;
29294;SDS011;16305;48.566;8.846;2023-01-24T12:11:30;38.97;;;19.77;;
29294;SDS011;16305;48.566;8.846;2023-01-24T12:14:26;42.13;;;20.57;;
29294;SDS011;16305;48.566;8.846;2023-01-24T12:20:06;44.93;;;21.23;;
29294;SDS011;16305;48.566;8.846;2023-01-24T12:22:57;39.87;;;19.53;;
29294;SDS011;16305;48.566;8.846;2023-01-24T12:25:31;44.33;;;19.97;;
29294;SDS011;16305;48.566;8.846;2023-01-24T12:28:05;36.83;;;17.47;;
29294;SDS011;16305;48.566;8.846;2023-01-24T12:30:37;37.47;;;19.33;;
29294;SDS011;16305;48.566;8.846;2023-01-24T12:38:54;37.77;;;19.03;;
29294;SDS011;16305;48.566;8.846;2023-01-24T12:41:31;33.57;;;18.23;;
29294;SDS011;16305;48.566;8.846;2023-01-24T12:47:13;33.77;;;17.47;;
29294;SDS011;16305;48.566;8.846;2023-01-24T12:49:57;31.97;;;17.60;;
29294;SDS011;16305;48.566;8.846;2023-01-24T12:55:25;31.60;;;17.07;;
29294;SDS011;16305;48.566;8.846;2023-01-24T12:58:21;33.90;;;18.73;;
29294;SDS011;16305;48.566;8.846;2023-01-24T13:09:42;34.10;;;18.33;;
29294;SDS011;16305;48.566;8.846;2023-01-24T13:12:23;26.23;;;15.03;;
29294;SDS011;16305;48.566;8.846;2023-01-24T13:14:52;41.20;;;19.40;;
29294;SDS011;16305;48.566;8.846;2023-01-24T13:17:28;44.33;;;20.53;;
29294;SDS011;16305;48.566;8.846;2023-01-24T13:23:25;32.33;;;17.43;;
29294;SDS011;16305;48.566;8.846;2023-01-24T13:26:09;38.30;;;18.27;;
29294;SDS011;16305;48.566;8.846;2023-01-24T13:29:06;29.67;;;16.57;;
29294;SDS011;16305;48.566;8.846;2023-01-24T13:34:29;38.83;;;19.27;;
29294;SDS011;16305;48.566;8.846;2023-01-24T13:36:57;26.53;;;14.57;;
29294;SDS011;16305;48.566;8.846;2023-01-24T13:39:35;52.97;;;19.53;;
29294;SDS011;16305;48.566;8.846;2023-01-24T13:42:12;39.30;;;19.10;;
29294;SDS011;16305;48.566;8.846;2023-01-24T13:44:45;42.87;;;20.73;;
29294;SDS011;16305;48.566;8.846;2023-01-24T13:54:56;36.97;;;18.23;;
29294;SDS011;16305;48.566;8.846;2023-01-24T14:00:00;36.93;;;18.80;;
29294;SDS011;16305;48.566;8.846;2023-01-24T14:10:36;38.93;;;19.83;;
29294;SDS011;16305;48.566;8.846;2023-01-24T14:13:04;36.77;;;19.43;;
29294;SDS011;16305;48.566;8.846;2023-01-24T14:15:37;34.27;;;18.67;;
29294;SDS011;16305;48.566;8.846;2023-01-24T14:21:14;35.17;;;16.93;;
29294;SDS011;16305;48.566;8.846;2023-01-24T14:23:45;37.20;;;18.50;;
29294;SDS011;16305;48.566;8.846;2023-01-24T14:26:14;32.80;;;17.97;;
29294;SDS011;16305;48.566;8.846;2023-01-24T14:28:51;35.30;;;17.20;;
29294;SDS011;16305;48.566;8.846;2023-01-24T14:31:22;35.20;;;17.60;;
29294;SDS011;16305;48.566;8.846;2023-01-24T14:36:43;24.90;;;13.70;;
29294;SDS011;16305;48.566;8.846;2023-01-24T14:39:25;31.10;;;16.87;;
29294;SDS011;16305;48.566;8.846;2023-01-24T14:41:58;33.73;;;18.17;;
29294;SDS011;16305;48.566;8.846;2023-01-24T14:44:33;31.10;;;16.70;;
29294;SDS011;16305;48.566;8.846;2023-01-24T14:49:46;32.23;;;17.70;;
29294;SDS011;16305;48.566;8.846;2023-01-24T14:52:23;30.23;;;17.57;;
29294;SDS011;16305;48.566;8.846;2023-01-24T14:54:54;35.47;;;18.50;;
29294;SDS011;16305;48.566;8.846;2023-01-24T14:57:27;30.47;;;17.07;;
29294;SDS011;16305;48.566;8.846;2023-01-24T15:00:01;32.97;;;17.80;;
29294;SDS011;16305;48.566;8.846;2023-01-24T15:02:36;31.53;;;17.20;;
29294;SDS011;16305;48.566;8.846;2023-01-24T15:05:28;37.37;;;18.87;;
29294;SDS011;16305;48.566;8.846;2023-01-24T15:07:55;30.70;;;16.83;;
29294;SDS011;16305;48.566;8.846;2023-01-24T15:10:27;30.13;;;15.23;;
29294;SDS011;16305;48.566;8.846;2023-01-24T15:12:57;23.70;;;14.03;;
29294;SDS011;16305;48.566;8.846;2023-01-24T15:15:25;38.63;;;17.77;;
29294;SDS011;16305;48.566;8.846;2023-01-24T15:17:52;36.20;;;17.83;;
29294;SDS011;16305;48.566;8.846;2023-01-24T15:20:23;34.73;;;18.80;;
29294;SDS011;16305;48.566;8.846;2023-01-24T15:22:51;31.27;;;17.90;;
29294;SDS011;16305;48.566;8.846;2023-01-24T15:25:19;37.00;;;18.97;;
29294;SDS011;16305;48.566;8.846;2023-01-24T15:27:48;37.80;;;19.10;;
29294;SDS011;16305;48.566;8.846;2023-01-24T15:32:50;35.13;;;18.63;;
29294;SDS011;16305;48.566;8.846;2023-01-24T15:40:31;38.20;;;20.13;;
29294;SDS011;16305;48.566;8.846;2023-01-24T15:43:01;21.67;;;13.37;;
29294;SDS011;16305;48.566;8.846;2023-01-24T15:45:52;36.73;;;18.67;;
29294;SDS011;16305;48.566;8.846;2023-01-24T15:48:39;34.13;;;18.07;;
29294;SDS011;16305;48.566;8.846;2023-01-24T15:51:35;32.17;;;17.83;;
29294;SDS011;16305;48.566;8.846;2023-01-24T15:54:13;37.57;;;20.27;;
29294;SDS011;16305;48.566;8.846;2023-01-24T15:56:40;29.47;;;16.30;;
29294;SDS011;16305;48.566;8.846;2023-01-24T15:59:14;38.37;;;18.50;;
29294;SDS011;16305;48.566;8.846;2023-01-24T16:01:41;39.53;;;17.67;;
29294;SDS011;16305;48.566;8.846;2023-01-24T16:04:13;39.77;;;19.33;;
29294;SDS011;16305;48.566;8.846;2023-01-24T16:06:40;40.70;;;20.43;;
29294;SDS011;16305;48.566;8.846;2023-01-24T16:09:06;40.73;;;19.93;;
29294;SDS011;16305;48.566;8.846;2023-01-24T16:11:34;31.17;;;17.10;;
29294;SDS011;16305;48.566;8.846;2023-01-24T16:14:00;37.93;;;20.53;;
29294;SDS011;16305;48.566;8.846;2023-01-24T16:16:26;38.97;;;19.13;;
29294;SDS011;16305;48.566;8.846;2023-01-24T16:18:52;47.67;;;21.67;;
29294;SDS011;16305;48.566;8.846;2023-01-24T16:21:18;38.23;;;20.70;;
29294;SDS011;16305;48.566;8.846;2023-01-24T16:23:43;32.77;;;16.63;;
29294;SDS011;16305;48.566;8.846;2023-01-24T16:26:15;42.93;;;22.13;;
29294;SDS011;16305;48.566;8.846;2023-01-24T16:28:49;40.27;;;21.00;;
29294;SDS011;16305;48.566;8.846;2023-01-24T16:31:15;45.07;;;22.47;;
29294;SDS011;16305;48.566;8.846;2023-01-24T16:33:41;32.10;;;17.20;;
29294;SDS011;16305;48.566;8.846;2023-01-24T16:36:08;41.23;;;21.00;;
29294;SDS011;16305;48.566;8.846;2023-01-24T16:38:39;45.43;;;21.63;;
29294;SDS011;16305;48.566;8.846;2023-01-24T16:41:09;24.33;;;12.43;;
29294;SDS011;16305;48.566;8.846;2023-01-24T16:43:35;43.17;;;23.03;;